createdAt,value
2023-04-24T00:01:48.628Z,14.08
2023-04-24T00:05:51.043Z,14.10
2023-04-24T00:09:53.248Z,14.08
2023-04-24T00:13:55.795Z,14.09
2023-04-24T00:17:57.993Z,14.12
2023-04-24T00:22:00.178Z,13.97
2023-04-24T00:26:02.276Z,13.74
2023-04-24T00:30:05.824Z,13.77
2023-04-24T00:34:08.882Z,13.87
2023-04-24T00:38:11.406Z,13.89
2023-04-24T00:42:13.525Z,13.91
2023-04-24T00:46:15.924Z,13.91
2023-04-24T00:50:20.624Z,13.81
2023-04-24T00:54:22.714Z,13.87
2023-04-24T00:58:26.705Z,13.91
2023-04-24T01:02:29.277Z,13.82
2023-04-24T01:06:34.552Z,13.77
2023-04-24T01:10:37.754Z,13.47
2023-04-24T01:14:42.215Z,13.32
2023-04-24T01:18:45.189Z,13.15
2023-04-24T01:22:47.285Z,13.19
2023-04-24T01:26:51.068Z,13.33
2023-04-24T01:30:55.588Z,13.59
2023-04-24T01:34:59.376Z,13.77
2023-04-24T01:39:01.970Z,13.90
2023-04-24T01:43:04.124Z,13.91
2023-04-24T01:47:06.796Z,14.00
2023-04-24T01:51:09.032Z,13.94
2023-04-24T01:55:12.949Z,13.74
2023-04-24T01:59:18.015Z,13.63
2023-04-24T02:03:20.562Z,13.30
2023-04-24T02:07:28.200Z,12.99
2023-04-24T02:11:32.001Z,12.92
2023-04-24T02:15:34.287Z,12.94
2023-04-24T02:19:36.494Z,13.17
2023-04-24T02:23:38.559Z,13.40
2023-04-24T02:27:40.754Z,13.42
2023-04-24T02:31:42.931Z,13.31
2023-04-24T02:35:45.286Z,13.37
2023-04-24T02:39:47.274Z,13.47
2023-04-24T02:43:49.357Z,13.52
2023-04-24T02:47:51.545Z,13.69
2023-04-24T02:51:53.724Z,13.77
2023-04-24T02:55:55.884Z,13.81
2023-04-24T02:59:57.928Z,13.74
2023-04-24T03:04:00.437Z,13.65
2023-04-24T03:08:02.634Z,13.66
2023-04-24T03:12:04.933Z,13.63
2023-04-24T03:16:07.048Z,13.78
2023-04-24T03:20:09.887Z,13.85
2023-04-24T03:24:12.446Z,13.92
2023-04-24T03:28:14.631Z,13.99
2023-04-24T03:32:20.614Z,14.09
2023-04-24T03:36:23.756Z,13.93
2023-04-24T03:40:26.170Z,14.01
2023-04-24T03:44:28.326Z,14.07
2023-04-24T03:48:31.044Z,14.03
2023-04-24T03:52:33.443Z,14.04
2023-04-24T03:56:35.892Z,14.10
2023-04-24T04:00:38.866Z,14.16
2023-04-24T04:04:59.271Z,14.19
2023-04-24T04:09:02.515Z,14.24
2023-04-24T04:13:05.480Z,14.25
2023-04-24T04:17:07.778Z,14.26
2023-04-24T04:21:10.097Z,14.28
2023-04-24T04:25:12.742Z,14.27
2023-04-24T04:29:15.869Z,14.31
2023-04-24T04:33:22.091Z,14.40
2023-04-24T04:37:24.600Z,14.38
2023-04-24T04:41:42.819Z,14.37
2023-04-24T04:45:46.329Z,14.37
2023-04-24T04:50:09.156Z,14.41
2023-04-24T04:54:11.447Z,14.45
2023-04-24T04:58:13.789Z,14.46
2023-04-24T05:02:16.154Z,14.52
2023-04-24T05:06:18.428Z,14.56
2023-04-24T05:10:21.947Z,14.58
2023-04-24T05:19:10.221Z,14.60
2023-04-24T05:23:15.898Z,14.58
2023-04-24T05:27:21.764Z,14.57
2023-04-24T05:31:25.059Z,14.57
2023-04-24T05:35:27.199Z,14.64
2023-04-24T05:39:29.290Z,14.65
2023-04-24T05:43:31.410Z,14.73
2023-04-24T05:47:33.487Z,14.70
2023-04-24T05:51:36.644Z,14.73
2023-04-24T05:55:39.348Z,14.71
2023-04-24T05:59:42.812Z,14.65
2023-04-24T06:03:46.528Z,14.66
2023-04-24T06:07:49.461Z,14.68
2023-04-24T06:11:55.495Z,14.63
2023-04-24T06:16:02.027Z,14.68
2023-04-24T06:20:10.000Z,14.88
2023-04-24T06:24:12.921Z,15.04
2023-04-24T06:28:15.017Z,15.16
2023-04-24T06:32:17.224Z,15.32
2023-04-24T06:36:19.486Z,15.45
2023-04-24T06:40:21.822Z,15.46
2023-04-24T06:44:24.060Z,15.54
2023-04-24T06:48:26.955Z,15.61
2023-04-24T06:52:29.120Z,15.99
2023-04-24T06:56:32.064Z,16.07
2023-04-24T07:00:34.863Z,15.96
2023-04-24T07:04:37.851Z,15.86
2023-04-24T07:08:40.465Z,15.73
2023-04-24T07:12:43.325Z,15.59
2023-04-24T07:16:46.304Z,15.83
2023-04-24T07:20:48.429Z,15.95
2023-04-24T07:24:50.533Z,16.21
2023-04-24T07:28:52.550Z,16.44
2023-04-24T07:32:54.631Z,16.62
2023-04-24T07:36:56.966Z,16.60
2023-04-24T07:40:59.313Z,16.65
2023-04-24T07:45:01.425Z,16.28
2023-04-24T07:49:12.947Z,16.27
2023-04-24T07:53:16.332Z,15.99
2023-04-24T07:57:18.480Z,15.50
2023-04-24T08:01:20.768Z,14.54
2023-04-24T08:05:23.087Z,13.97
2023-04-24T08:09:27.532Z,13.75
2023-04-24T08:13:29.826Z,13.83
2023-04-24T08:17:34.706Z,14.17
2023-04-24T08:21:36.882Z,14.77
2023-04-24T08:25:39.122Z,15.29
2023-04-24T08:29:41.763Z,15.58
2023-04-24T08:33:46.108Z,15.86
2023-04-24T08:37:48.198Z,16.24
2023-04-24T08:41:51.711Z,16.30
2023-04-24T08:45:56.996Z,16.28
2023-04-24T08:50:03.832Z,15.94
2023-04-24T08:54:06.356Z,16.03
2023-04-24T08:58:09.043Z,15.97
2023-04-24T09:02:12.887Z,16.30
2023-04-24T09:06:15.993Z,16.65
2023-04-24T09:10:18.383Z,16.71
2023-04-24T09:14:21.358Z,16.71
2023-04-24T09:18:23.387Z,17.31
2023-04-24T09:22:25.835Z,17.71
2023-04-24T09:26:33.160Z,17.82
2023-04-24T09:30:35.547Z,18.13
2023-04-24T09:34:37.627Z,18.12
2023-04-24T09:38:40.032Z,17.84
2023-04-24T09:42:53.427Z,18.11
2023-04-24T09:46:57.714Z,18.31
2023-04-24T09:51:01.974Z,18.38
2023-04-24T09:55:12.174Z,18.37
2023-04-24T09:59:18.866Z,18.20
2023-04-24T10:03:21.297Z,18.09
2023-04-24T10:07:26.938Z,18.04
2023-04-24T10:11:29.290Z,17.99
2023-04-24T10:15:31.780Z,18.27
2023-04-24T10:19:36.846Z,18.48
2023-04-24T10:23:39.637Z,18.65
2023-04-24T10:27:42.103Z,18.61
2023-04-24T10:31:47.182Z,19.07
2023-04-24T10:35:52.151Z,18.63
2023-04-24T10:39:55.725Z,18.53
2023-04-24T10:44:12.373Z,18.12
2023-04-24T10:48:16.879Z,19.02
2023-04-24T10:52:19.202Z,19.23
2023-04-24T10:56:23.217Z,18.73
2023-04-24T11:00:28.698Z,18.96
2023-04-24T11:04:32.654Z,18.99
2023-04-24T11:08:47.250Z,18.82
2023-04-24T11:12:52.207Z,18.82
2023-04-24T11:16:58.791Z,19.23
2023-04-24T11:21:12.047Z,19.40
2023-04-24T11:25:17.402Z,18.87
2023-04-24T11:29:23.269Z,18.74
2023-04-24T11:33:26.430Z,19.28
2023-04-24T11:37:36.506Z,19.29
2023-04-24T11:41:39.241Z,19.78
2023-04-24T11:45:49.973Z,19.77
2023-04-24T11:49:52.656Z,19.57
2023-04-24T11:54:03.546Z,19.97
2023-04-24T11:58:07.304Z,20.13
2023-04-24T12:02:09.932Z,19.91
2023-04-24T12:06:12.941Z,20.10
2023-04-24T12:10:15.988Z,20.26
2023-04-24T12:14:18.296Z,19.82
2023-04-24T12:18:24.209Z,20.12
2023-04-24T12:22:26.637Z,19.96
2023-04-24T12:26:28.813Z,20.03
2023-04-24T12:30:35.829Z,19.93
2023-04-24T12:34:38.842Z,20.09
2023-04-24T12:38:45.508Z,20.20
2023-04-24T12:42:50.330Z,20.24
2023-04-24T12:46:52.576Z,20.07
2023-04-24T12:50:54.788Z,20.04
2023-04-24T12:54:59.881Z,20.43
2023-04-24T12:59:02.082Z,20.50
2023-04-24T13:03:04.632Z,20.01
2023-04-24T13:07:07.243Z,20.11
2023-04-24T13:11:09.466Z,20.12
2023-04-24T13:15:11.639Z,20.00
2023-04-24T13:19:13.727Z,20.28
2023-04-24T13:23:16.694Z,20.23
2023-04-24T13:27:18.930Z,20.41
2023-04-24T13:31:20.980Z,19.98
2023-04-24T13:35:23.143Z,19.76
2023-04-24T13:39:26.468Z,19.95
2023-04-24T13:43:28.521Z,20.10
2023-04-24T13:47:30.812Z,20.08
2023-04-24T13:51:33.926Z,20.38
2023-04-24T13:55:36.200Z,20.45
2023-04-24T13:59:38.296Z,20.42
2023-04-24T14:03:40.528Z,20.09
2023-04-24T14:07:43.066Z,19.98
2023-04-24T14:11:45.469Z,19.82
2023-04-24T14:15:47.774Z,19.62
2023-04-24T14:19:50.008Z,19.90
2023-04-24T14:23:52.318Z,19.82
2023-04-24T14:27:54.457Z,20.15
2023-04-24T14:31:56.812Z,19.84
2023-04-24T14:35:59.106Z,19.85
2023-04-24T14:44:08.792Z,19.10
2023-04-24T14:48:12.452Z,19.07
2023-04-24T14:52:14.542Z,19.02
2023-04-24T14:56:16.858Z,18.94
2023-04-24T15:00:19.741Z,18.90
2023-04-24T15:04:22.862Z,18.87
2023-04-24T15:08:25.199Z,19.00
2023-04-24T15:12:27.325Z,19.01
2023-04-24T15:16:29.432Z,18.98
2023-04-24T15:20:31.596Z,19.24
2023-04-24T15:24:33.659Z,19.18
2023-04-24T15:28:35.798Z,19.23
2023-04-24T15:32:38.260Z,19.59
2023-04-24T15:36:40.530Z,20.05
2023-04-24T15:40:42.646Z,20.48
2023-04-24T15:44:45.998Z,22.39
2023-04-24T15:48:48.416Z,22.98
2023-04-24T15:52:50.669Z,24.15
2023-04-24T15:56:52.816Z,24.54
2023-04-24T16:00:55.667Z,24.64
2023-04-24T16:04:58.694Z,24.56
2023-04-24T16:09:03.529Z,24.93
2023-04-24T16:13:06.485Z,25.65
2023-04-24T16:17:08.538Z,26.38
2023-04-24T16:21:11.100Z,24.87
2023-04-24T16:25:13.583Z,24.34
2023-04-24T16:29:15.941Z,24.29
2023-04-24T16:33:18.904Z,24.12
2023-04-24T16:37:21.700Z,24.75
2023-04-24T16:41:23.830Z,25.03
2023-04-24T16:45:26.100Z,24.40
2023-04-24T16:49:31.599Z,24.09
2023-04-24T16:53:33.829Z,24.62
2023-04-24T16:57:36.019Z,25.70
2023-04-24T17:01:38.086Z,25.78
2023-04-24T17:05:40.244Z,26.25
2023-04-24T17:09:42.822Z,25.03
2023-04-24T17:13:45.326Z,23.80
2023-04-24T17:17:47.477Z,24.22
2023-04-24T17:21:49.606Z,23.18
2023-04-24T17:25:51.689Z,22.38
2023-04-24T17:29:53.781Z,21.65
2023-04-24T17:33:55.908Z,21.33
2023-04-24T17:37:58.857Z,21.11
2023-04-24T17:42:02.218Z,20.45
2023-04-24T17:46:04.483Z,19.88
2023-04-24T17:50:07.154Z,19.36
2023-04-24T17:54:09.185Z,19.13
2023-04-24T17:58:11.620Z,18.97
2023-04-24T18:02:13.808Z,18.69
2023-04-24T18:06:17.410Z,18.13
2023-04-24T18:10:19.531Z,17.77
2023-04-24T18:14:23.603Z,17.68
2023-04-24T18:18:25.768Z,17.41
2023-04-24T18:22:27.872Z,17.16
2023-04-24T18:26:30.269Z,17.02
2023-04-24T18:30:32.634Z,16.79
2023-04-24T18:34:34.700Z,16.59
2023-04-24T18:38:36.987Z,16.43
2023-04-24T18:42:39.216Z,16.06
2023-04-24T18:46:41.631Z,16.03
2023-04-24T18:50:44.472Z,15.95
2023-04-24T18:54:47.902Z,15.71
2023-04-24T18:58:50.768Z,15.69
2023-04-24T19:02:53.483Z,15.59
2023-04-24T19:06:56.022Z,15.56
2023-04-24T19:10:59.632Z,15.49
2023-04-24T19:15:02.582Z,15.36
2023-04-24T19:19:05.723Z,15.21
2023-04-24T19:23:08.752Z,15.16
2023-04-24T19:27:10.924Z,15.05
2023-04-24T19:31:13.245Z,15.04
2023-04-24T19:35:15.821Z,14.97
2023-04-24T19:39:18.016Z,14.89
2023-04-24T19:43:21.153Z,14.82
2023-04-24T19:47:23.278Z,14.55
2023-04-24T19:51:26.512Z,14.32
2023-04-24T19:55:29.344Z,14.13
2023-04-24T19:59:34.013Z,14.10
2023-04-24T20:03:36.505Z,13.87
2023-04-24T20:07:38.756Z,13.58
2023-04-24T20:11:41.111Z,13.23
2023-04-24T20:15:43.281Z,13.22
2023-04-24T20:19:46.456Z,13.30
2023-04-24T20:23:48.716Z,13.25
2023-04-24T20:27:50.932Z,13.37
2023-04-24T20:31:53.406Z,13.42
2023-04-24T20:35:57.018Z,13.25
2023-04-24T20:39:59.957Z,13.20
2023-04-24T20:44:02.791Z,13.08
2023-04-24T20:48:06.288Z,12.89
2023-04-24T20:52:08.747Z,12.65
2023-04-24T20:56:12.162Z,12.55
2023-04-24T21:00:15.519Z,12.46
2023-04-24T21:04:17.959Z,12.57
2023-04-24T21:08:20.209Z,12.71
2023-04-24T21:12:22.499Z,12.70
2023-04-24T21:16:24.704Z,12.72
2023-04-24T21:20:26.899Z,12.58
2023-04-24T21:24:29.217Z,12.28
2023-04-24T21:28:32.082Z,12.38
2023-04-24T21:32:34.277Z,12.36
2023-04-24T21:36:36.776Z,12.05
2023-04-24T21:40:39.022Z,12.04
2023-04-24T21:44:41.221Z,12.08
2023-04-24T21:48:43.478Z,12.12
2023-04-24T21:52:45.732Z,12.14
2023-04-24T21:56:47.933Z,11.98
2023-04-24T22:00:50.045Z,11.88
2023-04-24T22:04:52.978Z,11.76
2023-04-24T22:08:55.172Z,11.79
2023-04-24T22:12:57.210Z,11.85
2023-04-24T22:16:59.231Z,11.83
2023-04-24T22:21:01.672Z,12.01
2023-04-24T22:25:04.413Z,11.79
2023-04-24T22:29:06.518Z,11.88
2023-04-24T22:33:08.712Z,11.85
2023-04-24T22:37:11.440Z,11.61
2023-04-24T22:41:14.136Z,11.48
2023-04-24T22:45:16.793Z,11.26
2023-04-24T22:49:20.128Z,11.07
2023-04-24T22:53:23.261Z,10.92
2023-04-24T22:57:25.333Z,11.06
2023-04-24T23:01:27.707Z,10.94
2023-04-24T23:05:31.160Z,10.96
2023-04-24T23:09:33.555Z,11.13
2023-04-24T23:13:35.560Z,11.23
2023-04-24T23:17:38.162Z,11.26
2023-04-24T23:21:40.570Z,11.12
2023-04-24T23:25:42.721Z,11.10
2023-04-24T23:29:44.805Z,11.17
2023-04-24T23:33:47.108Z,11.08
2023-04-24T23:37:49.383Z,10.61
2023-04-24T23:41:53.648Z,10.47
2023-04-24T23:45:55.846Z,10.59
2023-04-24T23:49:58.052Z,10.56
2023-04-24T23:54:00.759Z,10.56
2023-04-24T23:58:02.778Z,10.56
